sensor_id;sensor_type;location;lat;lon;timestamp;temperature;humidity
78463;SHT31;67756;51.982;5.648;2023-07-13T00:01:31;20.7;55.8
78463;SHT31;67756;51.982;5.648;2023-07-13T00:04:01;20.7;55.7
78463;SHT31;67756;51.982;5.648;2023-07-13T00:06:31;20.7;55.7
78463;SHT31;67756;51.982;5.648;2023-07-13T00:09:01;20.7;55.3
78463;SHT31;67756;51.982;5.648;2023-07-13T00:11:31;20.6;55.4
78463;SHT31;67756;51.982;5.648;2023-07-13T00:14:00;20.6;55.5
78463;SHT31;67756;51.982;5.648;2023-07-13T00:16:29;20.5;55.2
78463;SHT31;67756;51.982;5.648;2023-07-13T00:18:58;20.5;55.2
78463;SHT31;67756;51.982;5.648;2023-07-13T00:21:28;20.5;55.2
78463;SHT31;67756;51.982;5.648;2023-07-13T00:23:58;20.4;55.3
78463;SHT31;67756;51.982;5.648;2023-07-13T00:26:27;20.4;55.5
78463;SHT31;67756;51.982;5.648;2023-07-13T00:28:59;20.4;55.8
78463;SHT31;67756;51.982;5.648;2023-07-13T00:31:27;20.3;56.2
78463;SHT31;67756;51.982;5.648;2023-07-13T00:33:57;20.3;56.0
78463;SHT31;67756;51.982;5.648;2023-07-13T00:36:26;20.3;55.9
78463;SHT31;67756;51.982;5.648;2023-07-13T00:38:57;20.2;56.2
78463;SHT31;67756;51.982;5.648;2023-07-13T00:41:27;20.2;56.1
78463;SHT31;67756;51.982;5.648;2023-07-13T00:43:55;20.2;56.4
78463;SHT31;67756;51.982;5.648;2023-07-13T00:46:27;20.2;56.3
78463;SHT31;67756;51.982;5.648;2023-07-13T00:48:59;20.2;56.4
78463;SHT31;67756;51.982;5.648;2023-07-13T00:51:35;20.1;56.6
78463;SHT31;67756;51.982;5.648;2023-07-13T00:54:09;20.1;57.0
78463;SHT31;67756;51.982;5.648;2023-07-13T00:56:41;20.1;56.7
78463;SHT31;67756;51.982;5.648;2023-07-13T00:59:15;20.1;56.6
78463;SHT31;67756;51.982;5.648;2023-07-13T01:01:44;20.0;56.9
78463;SHT31;67756;51.982;5.648;2023-07-13T01:04:15;20.0;57.0
78463;SHT31;67756;51.982;5.648;2023-07-13T01:06:47;19.9;57.2
78463;SHT31;67756;51.982;5.648;2023-07-13T01:09:15;19.9;57.4
78463;SHT31;67756;51.982;5.648;2023-07-13T01:11:47;19.8;57.5
78463;SHT31;67756;51.982;5.648;2023-07-13T01:14:17;19.8;57.6
78463;SHT31;67756;51.982;5.648;2023-07-13T01:16:49;19.8;57.8
78463;SHT31;67756;51.982;5.648;2023-07-13T01:19:28;19.8;57.9
78463;SHT31;67756;51.982;5.648;2023-07-13T01:22:03;19.7;57.9
78463;SHT31;67756;51.982;5.648;2023-07-13T01:24:35;19.7;58.0
78463;SHT31;67756;51.982;5.648;2023-07-13T01:27:07;19.7;58.0
78463;SHT31;67756;51.982;5.648;2023-07-13T01:29:40;19.6;58.1
78463;SHT31;67756;51.982;5.648;2023-07-13T01:32:13;19.6;58.5
78463;SHT31;67756;51.982;5.648;2023-07-13T01:34:42;19.6;58.5
78463;SHT31;67756;51.982;5.648;2023-07-13T01:37:12;19.5;58.6
78463;SHT31;67756;51.982;5.648;2023-07-13T01:39:40;19.5;58.8
78463;SHT31;67756;51.982;5.648;2023-07-13T01:42:11;19.4;58.9
78463;SHT31;67756;51.982;5.648;2023-07-13T01:44:40;19.4;59.1
78463;SHT31;67756;51.982;5.648;2023-07-13T01:47:10;19.4;59.1
78463;SHT31;67756;51.982;5.648;2023-07-13T01:49:39;19.3;59.4
78463;SHT31;67756;51.982;5.648;2023-07-13T01:52:08;19.3;59.5
78463;SHT31;67756;51.982;5.648;2023-07-13T01:54:37;19.3;59.5
78463;SHT31;67756;51.982;5.648;2023-07-13T01:57:06;19.2;59.6
78463;SHT31;67756;51.982;5.648;2023-07-13T01:59:34;19.2;59.8
78463;SHT31;67756;51.982;5.648;2023-07-13T02:02:03;19.2;59.7
78463;SHT31;67756;51.982;5.648;2023-07-13T02:04:32;19.2;59.8
78463;SHT31;67756;51.982;5.648;2023-07-13T02:07:01;19.1;60.1
78463;SHT31;67756;51.982;5.648;2023-07-13T02:09:30;19.1;60.1
78463;SHT31;67756;51.982;5.648;2023-07-13T02:11:58;19.1;60.3
78463;SHT31;67756;51.982;5.648;2023-07-13T02:14:27;19.1;60.5
78463;SHT31;67756;51.982;5.648;2023-07-13T02:16:56;19.0;60.1
78463;SHT31;67756;51.982;5.648;2023-07-13T02:19:25;19.0;60.2
78463;SHT31;67756;51.982;5.648;2023-07-13T02:21:55;19.0;60.3
78463;SHT31;67756;51.982;5.648;2023-07-13T02:24:24;19.0;60.3
78463;SHT31;67756;51.982;5.648;2023-07-13T02:26:54;19.0;60.2
78463;SHT31;67756;51.982;5.648;2023-07-13T02:29:22;19.0;60.3
78463;SHT31;67756;51.982;5.648;2023-07-13T02:31:51;18.9;60.5
78463;SHT31;67756;51.982;5.648;2023-07-13T02:34:20;18.9;60.7
78463;SHT31;67756;51.982;5.648;2023-07-13T02:36:49;18.9;61.0
78463;SHT31;67756;51.982;5.648;2023-07-13T02:39:18;18.8;60.9
78463;SHT31;67756;51.982;5.648;2023-07-13T02:41:46;18.8;61.1
78463;SHT31;67756;51.982;5.648;2023-07-13T02:44:15;18.8;61.7
78463;SHT31;67756;51.982;5.648;2023-07-13T02:46:46;18.7;61.6
78463;SHT31;67756;51.982;5.648;2023-07-13T02:49:14;18.7;61.8
78463;SHT31;67756;51.982;5.648;2023-07-13T02:51:43;18.7;62.0
78463;SHT31;67756;51.982;5.648;2023-07-13T02:54:12;18.7;62.1
78463;SHT31;67756;51.982;5.648;2023-07-13T02:56:41;18.6;62.2
78463;SHT31;67756;51.982;5.648;2023-07-13T02:59:10;18.6;62.6
78463;SHT31;67756;51.982;5.648;2023-07-13T03:01:41;18.6;62.6
78463;SHT31;67756;51.982;5.648;2023-07-13T03:04:09;18.5;62.7
78463;SHT31;67756;51.982;5.648;2023-07-13T03:06:38;18.5;62.9
78463;SHT31;67756;51.982;5.648;2023-07-13T03:09:07;18.5;63.3
78463;SHT31;67756;51.982;5.648;2023-07-13T03:11:39;18.5;63.1
78463;SHT31;67756;51.982;5.648;2023-07-13T03:14:08;18.4;63.2
78463;SHT31;67756;51.982;5.648;2023-07-13T03:16:36;18.4;63.5
78463;SHT31;67756;51.982;5.648;2023-07-13T03:19:07;18.4;63.6
78463;SHT31;67756;51.982;5.648;2023-07-13T03:21:35;18.4;63.9
78463;SHT31;67756;51.982;5.648;2023-07-13T03:24:07;18.3;63.9
78463;SHT31;67756;51.982;5.648;2023-07-13T03:26:36;18.3;64.1
78463;SHT31;67756;51.982;5.648;2023-07-13T03:29:06;18.3;64.3
78463;SHT31;67756;51.982;5.648;2023-07-13T03:31:36;18.3;64.4
78463;SHT31;67756;51.982;5.648;2023-07-13T03:34:05;18.3;64.4
78463;SHT31;67756;51.982;5.648;2023-07-13T03:36:33;18.2;64.5
78463;SHT31;67756;51.982;5.648;2023-07-13T03:39:03;18.2;64.6
78463;SHT31;67756;51.982;5.648;2023-07-13T03:41:34;18.2;64.7
78463;SHT31;67756;51.982;5.648;2023-07-13T03:44:04;18.2;65.0
78463;SHT31;67756;51.982;5.648;2023-07-13T03:46:33;18.1;65.1
78463;SHT31;67756;51.982;5.648;2023-07-13T03:49:03;18.1;65.3
78463;SHT31;67756;51.982;5.648;2023-07-13T03:51:32;18.1;65.4
78463;SHT31;67756;51.982;5.648;2023-07-13T03:54:01;18.1;65.6
78463;SHT31;67756;51.982;5.648;2023-07-13T03:56:31;18.0;65.6
78463;SHT31;67756;51.982;5.648;2023-07-13T03:59:02;18.0;65.8
78463;SHT31;67756;51.982;5.648;2023-07-13T04:01:31;18.0;65.9
78463;SHT31;67756;51.982;5.648;2023-07-13T04:04:00;18.0;66.3
78463;SHT31;67756;51.982;5.648;2023-07-13T04:06:30;18.0;66.3
78463;SHT31;67756;51.982;5.648;2023-07-13T04:09:01;18.1;66.0
78463;SHT31;67756;51.982;5.648;2023-07-13T04:11:32;18.1;65.6
78463;SHT31;67756;51.982;5.648;2023-07-13T04:14:03;18.1;65.5
78463;SHT31;67756;51.982;5.648;2023-07-13T04:16:32;18.1;65.4
78463;SHT31;67756;51.982;5.648;2023-07-13T04:19:03;18.1;65.6
78463;SHT31;67756;51.982;5.648;2023-07-13T04:21:32;18.1;65.6
78463;SHT31;67756;51.982;5.648;2023-07-13T04:24:00;18.1;65.7
78463;SHT31;67756;51.982;5.648;2023-07-13T04:26:29;18.1;65.9
78463;SHT31;67756;51.982;5.648;2023-07-13T04:29:00;18.1;65.9
78463;SHT31;67756;51.982;5.648;2023-07-13T04:31:31;18.1;66.1
78463;SHT31;67756;51.982;5.648;2023-07-13T04:34:00;18.0;66.2
78463;SHT31;67756;51.982;5.648;2023-07-13T04:36:29;18.0;66.5
78463;SHT31;67756;51.982;5.648;2023-07-13T04:38:58;18.0;66.6
78463;SHT31;67756;51.982;5.648;2023-07-13T04:41:29;18.0;66.9
78463;SHT31;67756;51.982;5.648;2023-07-13T04:43:57;18.0;67.1
78463;SHT31;67756;51.982;5.648;2023-07-13T04:46:26;18.0;67.2
78463;SHT31;67756;51.982;5.648;2023-07-13T04:48:55;18.0;67.3
78463;SHT31;67756;51.982;5.648;2023-07-13T04:51:25;18.0;67.5
78463;SHT31;67756;51.982;5.648;2023-07-13T04:53:54;18.0;67.6
78463;SHT31;67756;51.982;5.648;2023-07-13T04:56:22;18.0;67.6
78463;SHT31;67756;51.982;5.648;2023-07-13T04:58:51;18.0;67.7
78463;SHT31;67756;51.982;5.648;2023-07-13T05:01:20;18.0;68.1
78463;SHT31;67756;51.982;5.648;2023-07-13T05:03:49;18.0;68.0
78463;SHT31;67756;51.982;5.648;2023-07-13T05:06:17;18.0;68.3
78463;SHT31;67756;51.982;5.648;2023-07-13T05:08:46;18.0;68.1
78463;SHT31;67756;51.982;5.648;2023-07-13T05:11:14;18.0;68.4
78463;SHT31;67756;51.982;5.648;2023-07-13T05:13:43;18.0;68.3
78463;SHT31;67756;51.982;5.648;2023-07-13T05:16:12;18.0;68.3
78463;SHT31;67756;51.982;5.648;2023-07-13T05:18:41;18.0;68.5
78463;SHT31;67756;51.982;5.648;2023-07-13T05:21:10;18.1;68.6
78463;SHT31;67756;51.982;5.648;2023-07-13T05:23:40;18.1;69.0
78463;SHT31;67756;51.982;5.648;2023-07-13T05:26:10;18.1;68.8
78463;SHT31;67756;51.982;5.648;2023-07-13T05:28:39;18.2;68.5
78463;SHT31;67756;51.982;5.648;2023-07-13T05:31:10;18.2;68.4
78463;SHT31;67756;51.982;5.648;2023-07-13T05:33:39;18.2;68.3
78463;SHT31;67756;51.982;5.648;2023-07-13T05:36:11;18.3;68.8
78463;SHT31;67756;51.982;5.648;2023-07-13T05:38:40;18.3;68.5
78463;SHT31;67756;51.982;5.648;2023-07-13T05:41:09;18.3;68.9
78463;SHT31;67756;51.982;5.648;2023-07-13T05:43:38;18.4;68.6
78463;SHT31;67756;51.982;5.648;2023-07-13T05:46:06;18.4;68.6
78463;SHT31;67756;51.982;5.648;2023-07-13T05:48:35;18.4;68.6
78463;SHT31;67756;51.982;5.648;2023-07-13T05:51:04;18.5;68.9
78463;SHT31;67756;51.982;5.648;2023-07-13T05:53:34;18.5;68.7
78463;SHT31;67756;51.982;5.648;2023-07-13T05:56:03;18.6;68.8
78463;SHT31;67756;51.982;5.648;2023-07-13T05:58:32;18.7;68.7
78463;SHT31;67756;51.982;5.648;2023-07-13T06:01:04;18.7;68.7
78463;SHT31;67756;51.982;5.648;2023-07-13T06:03:33;18.8;68.7
78463;SHT31;67756;51.982;5.648;2023-07-13T06:06:05;18.9;68.5
78463;SHT31;67756;51.982;5.648;2023-07-13T06:08:35;18.9;68.3
78463;SHT31;67756;51.982;5.648;2023-07-13T06:11:05;19.0;68.4
78463;SHT31;67756;51.982;5.648;2023-07-13T06:13:34;19.0;69.0
78463;SHT31;67756;51.982;5.648;2023-07-13T06:16:06;19.0;68.8
78463;SHT31;67756;51.982;5.648;2023-07-13T06:18:36;19.1;68.7
78463;SHT31;67756;51.982;5.648;2023-07-13T06:21:09;19.1;68.6
78463;SHT31;67756;51.982;5.648;2023-07-13T06:23:38;19.1;68.7
78463;SHT31;67756;51.982;5.648;2023-07-13T06:26:08;19.2;68.5
78463;SHT31;67756;51.982;5.648;2023-07-13T06:28:37;19.2;68.7
78463;SHT31;67756;51.982;5.648;2023-07-13T06:31:08;19.2;68.8
78463;SHT31;67756;51.982;5.648;2023-07-13T06:33:37;19.3;68.8
78463;SHT31;67756;51.982;5.648;2023-07-13T06:36:08;19.3;69.1
78463;SHT31;67756;51.982;5.648;2023-07-13T06:38:37;19.4;68.5
78463;SHT31;67756;51.982;5.648;2023-07-13T06:41:07;19.4;68.4
78463;SHT31;67756;51.982;5.648;2023-07-13T06:43:36;19.5;68.7
78463;SHT31;67756;51.982;5.648;2023-07-13T06:46:05;19.5;69.3
78463;SHT31;67756;51.982;5.648;2023-07-13T06:48:34;19.6;68.3
78463;SHT31;67756;51.982;5.648;2023-07-13T06:51:03;19.8;68.2
78463;SHT31;67756;51.982;5.648;2023-07-13T06:53:32;19.8;67.6
78463;SHT31;67756;51.982;5.648;2023-07-13T06:56:00;19.9;67.2
78463;SHT31;67756;51.982;5.648;2023-07-13T06:58:29;20.0;66.6
78463;SHT31;67756;51.982;5.648;2023-07-13T07:00:58;20.0;66.5
78463;SHT31;67756;51.982;5.648;2023-07-13T07:03:27;20.0;67.4
78463;SHT31;67756;51.982;5.648;2023-07-13T07:05:59;20.1;66.4
78463;SHT31;67756;51.982;5.648;2023-07-13T07:08:29;20.1;66.9
78463;SHT31;67756;51.982;5.648;2023-07-13T07:10:57;20.2;65.7
78463;SHT31;67756;51.982;5.648;2023-07-13T07:13:26;20.3;66.0
78463;SHT31;67756;51.982;5.648;2023-07-13T07:15:56;20.3;65.8
78463;SHT31;67756;51.982;5.648;2023-07-13T07:18:26;20.4;65.7
78463;SHT31;67756;51.982;5.648;2023-07-13T07:20:55;20.4;64.9
78463;SHT31;67756;51.982;5.648;2023-07-13T07:23:24;20.4;65.1
78463;SHT31;67756;51.982;5.648;2023-07-13T07:25:52;20.4;64.8
78463;SHT31;67756;51.982;5.648;2023-07-13T07:28:21;20.5;64.9
78463;SHT31;67756;51.982;5.648;2023-07-13T07:30:54;20.5;64.9
78463;SHT31;67756;51.982;5.648;2023-07-13T07:33:23;20.5;64.7
78463;SHT31;67756;51.982;5.648;2023-07-13T07:35:52;20.5;65.6
78463;SHT31;67756;51.982;5.648;2023-07-13T07:38:20;20.6;65.0
78463;SHT31;67756;51.982;5.648;2023-07-13T07:40:49;20.6;65.1
78463;SHT31;67756;51.982;5.648;2023-07-13T07:43:17;20.6;63.9
78463;SHT31;67756;51.982;5.648;2023-07-13T07:45:48;20.7;64.0
78463;SHT31;67756;51.982;5.648;2023-07-13T07:48:17;20.7;64.4
78463;SHT31;67756;51.982;5.648;2023-07-13T07:50:45;20.7;65.0
78463;SHT31;67756;51.982;5.648;2023-07-13T07:53:14;20.8;64.7
78463;SHT31;67756;51.982;5.648;2023-07-13T07:55:43;20.8;64.6
78463;SHT31;67756;51.982;5.648;2023-07-13T07:58:12;20.9;63.4
78463;SHT31;67756;51.982;5.648;2023-07-13T08:00:40;20.9;63.5
78463;SHT31;67756;51.982;5.648;2023-07-13T08:03:09;21.0;63.0
78463;SHT31;67756;51.982;5.648;2023-07-13T08:05:38;21.0;62.6
78463;SHT31;67756;51.982;5.648;2023-07-13T08:08:07;21.0;62.9
78463;SHT31;67756;51.982;5.648;2023-07-13T08:10:37;21.0;62.9
78463;SHT31;67756;51.982;5.648;2023-07-13T08:13:05;21.1;63.0
78463;SHT31;67756;51.982;5.648;2023-07-13T08:15:34;21.1;62.3
78463;SHT31;67756;51.982;5.648;2023-07-13T08:18:03;21.2;62.1
78463;SHT31;67756;51.982;5.648;2023-07-13T08:20:31;21.2;61.7
78463;SHT31;67756;51.982;5.648;2023-07-13T08:23:00;21.3;61.7
78463;SHT31;67756;51.982;5.648;2023-07-13T08:25:29;21.3;62.1
78463;SHT31;67756;51.982;5.648;2023-07-13T08:27:57;21.4;62.3
78463;SHT31;67756;51.982;5.648;2023-07-13T08:30:26;21.4;62.3
78463;SHT31;67756;51.982;5.648;2023-07-13T08:32:55;21.4;61.7
78463;SHT31;67756;51.982;5.648;2023-07-13T08:35:24;21.4;61.2
78463;SHT31;67756;51.982;5.648;2023-07-13T08:37:53;21.4;61.9
78463;SHT31;67756;51.982;5.648;2023-07-13T08:40:25;21.5;62.7
78463;SHT31;67756;51.982;5.648;2023-07-13T08:42:57;21.5;62.3
78463;SHT31;67756;51.982;5.648;2023-07-13T08:45:30;21.6;59.5
78463;SHT31;67756;51.982;5.648;2023-07-13T08:48:04;21.7;58.4
78463;SHT31;67756;51.982;5.648;2023-07-13T08:50:46;21.8;57.3
78463;SHT31;67756;51.982;5.648;2023-07-13T08:53:17;21.9;56.5
78463;SHT31;67756;51.982;5.648;2023-07-13T08:55:47;22.0;56.2
78463;SHT31;67756;51.982;5.648;2023-07-13T08:58:17;22.0;56.1
78463;SHT31;67756;51.982;5.648;2023-07-13T09:00:58;22.1;57.3
78463;SHT31;67756;51.982;5.648;2023-07-13T09:03:29;22.2;57.0
78463;SHT31;67756;51.982;5.648;2023-07-13T09:05:59;22.2;56.9
78463;SHT31;67756;51.982;5.648;2023-07-13T09:08:44;22.3;55.8
78463;SHT31;67756;51.982;5.648;2023-07-13T09:11:26;22.3;55.7
78463;SHT31;67756;51.982;5.648;2023-07-13T09:14:11;22.3;56.8
78463;SHT31;67756;51.982;5.648;2023-07-13T09:16:41;22.3;57.2
78463;SHT31;67756;51.982;5.648;2023-07-13T09:19:19;22.3;56.5
78463;SHT31;67756;51.982;5.648;2023-07-13T09:21:51;22.3;57.1
78463;SHT31;67756;51.982;5.648;2023-07-13T09:24:30;22.2;57.3
78463;SHT31;67756;51.982;5.648;2023-07-13T09:27:05;22.2;59.9
78463;SHT31;67756;51.982;5.648;2023-07-13T09:29:44;22.1;59.7
78463;SHT31;67756;51.982;5.648;2023-07-13T09:32:16;22.0;60.8
78463;SHT31;67756;51.982;5.648;2023-07-13T09:34:52;21.9;61.5
78463;SHT31;67756;51.982;5.648;2023-07-13T09:37:29;21.8;61.8
78463;SHT31;67756;51.982;5.648;2023-07-13T09:39:59;21.7;62.0
78463;SHT31;67756;51.982;5.648;2023-07-13T09:42:32;21.7;63.0
78463;SHT31;67756;51.982;5.648;2023-07-13T09:45:05;21.6;62.8
78463;SHT31;67756;51.982;5.648;2023-07-13T09:47:39;21.6;61.7
78463;SHT31;67756;51.982;5.648;2023-07-13T09:50:15;21.6;62.5
78463;SHT31;67756;51.982;5.648;2023-07-13T09:52:47;21.6;61.5
78463;SHT31;67756;51.982;5.648;2023-07-13T09:55:26;21.6;62.3
78463;SHT31;67756;51.982;5.648;2023-07-13T09:57:57;21.6;61.2
78463;SHT31;67756;51.982;5.648;2023-07-13T10:00:29;21.7;60.9
78463;SHT31;67756;51.982;5.648;2023-07-13T10:03:03;21.8;61.3
78463;SHT31;67756;51.982;5.648;2023-07-13T10:05:41;21.9;60.4
78463;SHT31;67756;51.982;5.648;2023-07-13T10:08:21;22.1;60.4
78463;SHT31;67756;51.982;5.648;2023-07-13T10:11:01;22.4;58.2
78463;SHT31;67756;51.982;5.648;2023-07-13T10:13:34;22.6;60.0
78463;SHT31;67756;51.982;5.648;2023-07-13T10:16:05;22.7;59.8
78463;SHT31;67756;51.982;5.648;2023-07-13T10:18:39;22.7;58.4
78463;SHT31;67756;51.982;5.648;2023-07-13T10:21:15;22.7;56.8
78463;SHT31;67756;51.982;5.648;2023-07-13T10:23:49;22.7;57.2
78463;SHT31;67756;51.982;5.648;2023-07-13T10:26:23;22.7;56.9
78463;SHT31;67756;51.982;5.648;2023-07-13T10:28:57;22.7;57.3
78463;SHT31;67756;51.982;5.648;2023-07-13T10:31:27;22.7;58.1
78463;SHT31;67756;51.982;5.648;2023-07-13T10:33:56;22.7;59.5
78463;SHT31;67756;51.982;5.648;2023-07-13T10:36:32;22.8;58.1
78463;SHT31;67756;51.982;5.648;2023-07-13T10:39:04;22.9;56.1
78463;SHT31;67756;51.982;5.648;2023-07-13T10:41:39;23.1;55.1
78463;SHT31;67756;51.982;5.648;2023-07-13T10:44:20;23.2;54.3
78463;SHT31;67756;51.982;5.648;2023-07-13T10:46:54;23.2;52.8
78463;SHT31;67756;51.982;5.648;2023-07-13T10:49:26;23.3;51.3
78463;SHT31;67756;51.982;5.648;2023-07-13T10:51:57;23.3;51.0
78463;SHT31;67756;51.982;5.648;2023-07-13T10:54:31;23.4;52.3
78463;SHT31;67756;51.982;5.648;2023-07-13T10:57:18;23.5;51.7
78463;SHT31;67756;51.982;5.648;2023-07-13T11:00:14;23.7;57.9
78463;SHT31;67756;51.982;5.648;2023-07-13T11:02:57;23.7;58.0
78463;SHT31;67756;51.982;5.648;2023-07-13T11:05:31;23.5;59.9
78463;SHT31;67756;51.982;5.648;2023-07-13T11:08:18;23.2;61.4
78463;SHT31;67756;51.982;5.648;2023-07-13T11:10:51;23.0;61.6
78463;SHT31;67756;51.982;5.648;2023-07-13T11:14:27;23.0;62.1
78463;SHT31;67756;51.982;5.648;2023-07-13T11:16:57;23.1;60.6
78463;SHT31;67756;51.982;5.648;2023-07-13T11:19:40;23.2;60.5
78463;SHT31;67756;51.982;5.648;2023-07-13T11:22:15;23.4;60.3
78463;SHT31;67756;51.982;5.648;2023-07-13T11:24:59;23.7;60.6
78463;SHT31;67756;51.982;5.648;2023-07-13T11:27:41;24.2;56.9
78463;SHT31;67756;51.982;5.648;2023-07-13T11:30:36;24.7;54.8
78463;SHT31;67756;51.982;5.648;2023-07-13T11:33:13;25.1;52.8
78463;SHT31;67756;51.982;5.648;2023-07-13T11:36:17;25.4;51.8
78463;SHT31;67756;51.982;5.648;2023-07-13T11:38:55;25.6;51.2
78463;SHT31;67756;51.982;5.648;2023-07-13T11:41:27;25.9;50.0
78463;SHT31;67756;51.982;5.648;2023-07-13T11:44:07;26.0;49.3
78463;SHT31;67756;51.982;5.648;2023-07-13T11:46:36;26.0;48.3
78463;SHT31;67756;51.982;5.648;2023-07-13T11:49:06;25.9;48.4
78463;SHT31;67756;51.982;5.648;2023-07-13T11:51:36;25.8;49.2
78463;SHT31;67756;51.982;5.648;2023-07-13T11:54:17;25.8;49.5
78463;SHT31;67756;51.982;5.648;2023-07-13T11:56:49;25.9;49.6
78463;SHT31;67756;51.982;5.648;2023-07-13T11:59:18;26.0;47.9
78463;SHT31;67756;51.982;5.648;2023-07-13T12:01:52;26.2;46.2
78463;SHT31;67756;51.982;5.648;2023-07-13T12:04:26;26.5;46.3
78463;SHT31;67756;51.982;5.648;2023-07-13T12:07:07;26.9;45.5
78463;SHT31;67756;51.982;5.648;2023-07-13T12:09:36;27.5;44.7
78463;SHT31;67756;51.982;5.648;2023-07-13T12:12:10;27.9;42.6
78463;SHT31;67756;51.982;5.648;2023-07-13T12:14:39;28.0;41.9
78463;SHT31;67756;51.982;5.648;2023-07-13T12:17:15;28.0;41.8
78463;SHT31;67756;51.982;5.648;2023-07-13T12:19:44;27.9;43.1
78463;SHT31;67756;51.982;5.648;2023-07-13T12:22:15;27.9;43.5
78463;SHT31;67756;51.982;5.648;2023-07-13T12:24:46;28.0;43.7
78463;SHT31;67756;51.982;5.648;2023-07-13T12:27:22;28.1;41.5
78463;SHT31;67756;51.982;5.648;2023-07-13T12:29:57;28.3;40.8
78463;SHT31;67756;51.982;5.648;2023-07-13T12:32:27;28.4;40.5
78463;SHT31;67756;51.982;5.648;2023-07-13T12:35:06;28.5;40.3
78463;SHT31;67756;51.982;5.648;2023-07-13T12:37:35;28.5;38.9
78463;SHT31;67756;51.982;5.648;2023-07-13T12:40:05;28.6;40.1
78463;SHT31;67756;51.982;5.648;2023-07-13T12:42:40;28.8;38.8
78463;SHT31;67756;51.982;5.648;2023-07-13T12:45:20;29.0;38.6
78463;SHT31;67756;51.982;5.648;2023-07-13T12:47:53;29.4;38.1
78463;SHT31;67756;51.982;5.648;2023-07-13T12:50:23;29.6;37.4
78463;SHT31;67756;51.982;5.648;2023-07-13T12:52:54;29.7;36.6
78463;SHT31;67756;51.982;5.648;2023-07-13T12:55:25;29.8;36.9
78463;SHT31;67756;51.982;5.648;2023-07-13T12:57:59;29.9;36.2
78463;SHT31;67756;51.982;5.648;2023-07-13T13:00:34;30.0;36.8
78463;SHT31;67756;51.982;5.648;2023-07-13T13:03:12;30.3;35.7
78463;SHT31;67756;51.982;5.648;2023-07-13T13:05:41;30.6;35.7
78463;SHT31;67756;51.982;5.648;2023-07-13T13:08:13;30.8;34.6
78463;SHT31;67756;51.982;5.648;2023-07-13T13:10:41;30.9;35.0
78463;SHT31;67756;51.982;5.648;2023-07-13T13:13:12;31.0;33.8
78463;SHT31;67756;51.982;5.648;2023-07-13T13:15:40;31.0;33.2
78463;SHT31;67756;51.982;5.648;2023-07-13T13:18:15;31.1;33.6
78463;SHT31;67756;51.982;5.648;2023-07-13T13:20:45;31.2;33.3
78463;SHT31;67756;51.982;5.648;2023-07-13T13:23:16;31.3;33.0
78463;SHT31;67756;51.982;5.648;2023-07-13T13:25:46;31.4;33.8
78463;SHT31;67756;51.982;5.648;2023-07-13T13:28:18;31.5;33.5
78463;SHT31;67756;51.982;5.648;2023-07-13T13:30:49;31.7;33.3
78463;SHT31;67756;51.982;5.648;2023-07-13T13:33:20;31.9;33.1
78463;SHT31;67756;51.982;5.648;2023-07-13T13:35:49;32.1;32.5
78463;SHT31;67756;51.982;5.648;2023-07-13T13:38:26;32.2;31.6
78463;SHT31;67756;51.982;5.648;2023-07-13T13:40:53;32.2;31.8
78463;SHT31;67756;51.982;5.648;2023-07-13T13:43:24;32.3;32.5
78463;SHT31;67756;51.982;5.648;2023-07-13T13:45:57;32.4;32.1
78463;SHT31;67756;51.982;5.648;2023-07-13T13:48:30;32.4;32.1
78463;SHT31;67756;51.982;5.648;2023-07-13T13:51:01;32.4;31.5
78463;SHT31;67756;51.982;5.648;2023-07-13T13:53:32;32.3;31.7
78463;SHT31;67756;51.982;5.648;2023-07-13T13:56:01;32.1;32.5
78463;SHT31;67756;51.982;5.648;2023-07-13T13:58:29;32.0;33.1
78463;SHT31;67756;51.982;5.648;2023-07-13T14:00:58;31.9;32.4
78463;SHT31;67756;51.982;5.648;2023-07-13T14:03:27;31.8;32.7
78463;SHT31;67756;51.982;5.648;2023-07-13T14:05:56;31.6;32.3
78463;SHT31;67756;51.982;5.648;2023-07-13T14:08:26;31.4;32.2
78463;SHT31;67756;51.982;5.648;2023-07-13T14:10:59;31.3;32.5
78463;SHT31;67756;51.982;5.648;2023-07-13T14:13:36;31.2;31.9
78463;SHT31;67756;51.982;5.648;2023-07-13T14:16:10;31.2;33.7
78463;SHT31;67756;51.982;5.648;2023-07-13T14:18:39;31.4;33.5
78463;SHT31;67756;51.982;5.648;2023-07-13T14:21:13;31.7;31.8
78463;SHT31;67756;51.982;5.648;2023-07-13T14:23:44;31.9;31.3
78463;SHT31;67756;51.982;5.648;2023-07-13T14:26:15;32.0;32.2
78463;SHT31;67756;51.982;5.648;2023-07-13T14:28:47;32.1;31.5
78463;SHT31;67756;51.982;5.648;2023-07-13T14:31:17;32.2;31.3
78463;SHT31;67756;51.982;5.648;2023-07-13T14:33:47;32.3;30.8
78463;SHT31;67756;51.982;5.648;2023-07-13T14:36:25;32.4;30.8
78463;SHT31;67756;51.982;5.648;2023-07-13T14:38:54;32.4;30.7
78463;SHT31;67756;51.982;5.648;2023-07-13T14:41:24;32.2;31.0
78463;SHT31;67756;51.982;5.648;2023-07-13T14:43:53;31.8;31.1
78463;SHT31;67756;51.982;5.648;2023-07-13T14:46:29;31.4;32.1
78463;SHT31;67756;51.982;5.648;2023-07-13T14:49:03;31.0;32.4
78463;SHT31;67756;51.982;5.648;2023-07-13T14:51:33;30.6;32.3
78463;SHT31;67756;51.982;5.648;2023-07-13T14:54:05;30.3;32.1
78463;SHT31;67756;51.982;5.648;2023-07-13T14:56:38;30.1;33.0
78463;SHT31;67756;51.982;5.648;2023-07-13T14:59:07;29.9;33.3
78463;SHT31;67756;51.982;5.648;2023-07-13T15:01:37;29.8;33.8
78463;SHT31;67756;51.982;5.648;2023-07-13T15:04:07;29.8;33.8
78463;SHT31;67756;51.982;5.648;2023-07-13T15:06:55;29.8;33.5
78463;SHT31;67756;51.982;5.648;2023-07-13T15:09:26;29.7;33.8
78463;SHT31;67756;51.982;5.648;2023-07-13T15:11:58;29.7;33.7
78463;SHT31;67756;51.982;5.648;2023-07-13T15:14:27;29.6;34.2
78463;SHT31;67756;51.982;5.648;2023-07-13T15:16:57;29.6;34.7
78463;SHT31;67756;51.982;5.648;2023-07-13T15:19:26;29.6;34.6
78463;SHT31;67756;51.982;5.648;2023-07-13T15:21:56;29.5;34.6
78463;SHT31;67756;51.982;5.648;2023-07-13T15:24:26;29.4;35.7
78463;SHT31;67756;51.982;5.648;2023-07-13T15:26:55;29.3;35.9
78463;SHT31;67756;51.982;5.648;2023-07-13T15:29:25;29.3;36.4
78463;SHT31;67756;51.982;5.648;2023-07-13T15:31:56;29.2;35.5
78463;SHT31;67756;51.982;5.648;2023-07-13T15:34:26;29.1;36.7
78463;SHT31;67756;51.982;5.648;2023-07-13T15:36:55;29.0;36.2
78463;SHT31;67756;51.982;5.648;2023-07-13T15:39:23;28.9;36.7
78463;SHT31;67756;51.982;5.648;2023-07-13T15:41:54;28.8;36.8
78463;SHT31;67756;51.982;5.648;2023-07-13T15:44:26;28.7;36.8
78463;SHT31;67756;51.982;5.648;2023-07-13T15:46:57;28.6;37.2
78463;SHT31;67756;51.982;5.648;2023-07-13T15:49:26;28.6;36.8
78463;SHT31;67756;51.982;5.648;2023-07-13T15:51:55;28.5;36.8
78463;SHT31;67756;51.982;5.648;2023-07-13T15:54:24;28.5;35.7
78463;SHT31;67756;51.982;5.648;2023-07-13T15:56:55;28.5;35.9
78463;SHT31;67756;51.982;5.648;2023-07-13T15:59:25;28.4;36.0
78463;SHT31;67756;51.982;5.648;2023-07-13T16:01:54;28.3;35.9
78463;SHT31;67756;51.982;5.648;2023-07-13T16:04:23;28.2;36.1
78463;SHT31;67756;51.982;5.648;2023-07-13T16:06:51;28.1;36.6
78463;SHT31;67756;51.982;5.648;2023-07-13T16:09:22;28.0;36.7
78463;SHT31;67756;51.982;5.648;2023-07-13T16:11:54;27.9;36.7
78463;SHT31;67756;51.982;5.648;2023-07-13T16:14:24;27.8;38.3
78463;SHT31;67756;51.982;5.648;2023-07-13T16:16:53;27.8;37.3
78463;SHT31;67756;51.982;5.648;2023-07-13T16:19:22;27.7;36.6
78463;SHT31;67756;51.982;5.648;2023-07-13T16:21:56;27.7;37.2
78463;SHT31;67756;51.982;5.648;2023-07-13T16:24:26;27.6;37.7
78463;SHT31;67756;51.982;5.648;2023-07-13T16:26:55;27.6;37.4
78463;SHT31;67756;51.982;5.648;2023-07-13T16:29:25;27.6;37.6